createdAt,value
2018-08-18T00:00:21.187Z,3.20
2018-08-18T00:01:27.140Z,2.40
2018-08-18T00:02:33.012Z,2.12
2018-08-18T00:03:38.427Z,2.80
2018-08-18T00:04:44.465Z,2.80
2018-08-18T00:05:49.748Z,2.40
2018-08-18T00:06:55.469Z,2.70
2018-08-18T00:08:01.469Z,2.30
2018-08-18T00:09:07.904Z,3.20
2018-08-18T00:10:13.252Z,2.62
2018-08-18T00:11:18.988Z,2.70
2018-08-18T00:12:24.906Z,2.20
2018-08-18T00:13:30.469Z,2.00
2018-08-18T00:14:36.605Z,2.87
2018-08-18T00:15:42.609Z,2.55
2018-08-18T00:16:48.258Z,2.15
2018-08-18T00:17:54.250Z,2.67
2018-08-18T00:19:00.356Z,2.53
2018-08-18T00:20:05.772Z,3.70
2018-08-18T00:21:11.720Z,2.70
2018-08-18T00:22:17.857Z,2.20
2018-08-18T00:23:23.622Z,2.60
2018-08-18T00:24:29.863Z,2.47
2018-08-18T00:25:40.927Z,2.85
2018-08-18T00:26:47.014Z,3.22
2018-08-18T00:27:52.310Z,2.75
2018-08-18T00:28:57.999Z,2.70
2018-08-18T00:30:03.355Z,2.42
2018-08-18T00:31:09.079Z,2.17
2018-08-18T00:32:15.689Z,2.30
2018-08-18T00:33:21.362Z,2.30
2018-08-18T00:34:28.253Z,2.50
2018-08-18T00:35:33.536Z,2.15
2018-08-18T00:36:39.325Z,5.03
2018-08-18T00:37:45.408Z,2.97
2018-08-18T00:38:51.281Z,3.30
2018-08-18T00:39:56.857Z,3.35
2018-08-18T00:41:02.741Z,2.35
2018-08-18T00:42:08.883Z,3.62
2018-08-18T00:43:14.665Z,1.90
2018-08-18T00:44:20.888Z,1.70
2018-08-18T00:45:27.231Z,2.12
2018-08-18T00:46:33.283Z,2.40
2018-08-18T00:47:39.445Z,3.20
2018-08-18T00:48:45.079Z,2.37
2018-08-18T00:49:51.055Z,1.80
2018-08-18T00:50:56.592Z,3.25
2018-08-18T00:52:02.780Z,2.20
2018-08-18T00:53:08.527Z,2.87
2018-08-18T00:54:14.532Z,2.25
2018-08-18T00:55:21.551Z,2.92
2018-08-18T00:56:27.918Z,3.20
2018-08-18T00:57:33.281Z,2.95
2018-08-18T00:58:38.610Z,2.55
2018-08-18T00:59:43.659Z,2.45
2018-08-18T01:00:49.848Z,2.60
2018-08-18T01:01:56.340Z,2.62
2018-08-18T01:03:02.160Z,2.40
2018-08-18T01:04:07.829Z,2.53
2018-08-18T01:05:13.863Z,2.87
2018-08-18T01:06:19.064Z,2.55
2018-08-18T01:07:24.244Z,2.53
2018-08-18T01:08:30.263Z,2.20
2018-08-18T01:09:35.669Z,4.15
2018-08-18T01:10:41.641Z,2.40
2018-08-18T01:11:47.655Z,3.35
2018-08-18T01:12:54.030Z,3.75
2018-08-18T01:13:59.390Z,3.30
2018-08-18T01:15:04.906Z,2.60
2018-08-18T01:16:11.496Z,3.97
2018-08-18T01:17:17.207Z,2.80
2018-08-18T01:18:22.840Z,3.00
2018-08-18T01:19:29.277Z,3.30
2018-08-18T01:20:35.146Z,2.70
2018-08-18T01:21:40.943Z,3.58
2018-08-18T01:22:46.795Z,4.15
2018-08-18T01:23:52.684Z,3.10
2018-08-18T01:24:58.635Z,7.68
2018-08-18T01:26:04.426Z,3.00
2018-08-18T01:27:10.555Z,3.00
2018-08-18T01:28:16.468Z,2.75
2018-08-18T01:29:22.496Z,3.15
2018-08-18T01:30:28.278Z,3.95
2018-08-18T01:31:34.429Z,2.80
2018-08-18T01:32:40.519Z,2.70
2018-08-18T01:33:46.545Z,2.95
2018-08-18T01:34:52.189Z,2.53
2018-08-18T01:35:58.214Z,2.33
2018-08-18T01:37:03.773Z,3.00
2018-08-18T01:38:09.856Z,2.28
2018-08-18T01:39:15.275Z,3.12
2018-08-18T01:40:21.421Z,2.40
2018-08-18T01:41:26.725Z,3.70
2018-08-18T01:42:32.973Z,2.95
2018-08-18T01:43:39.269Z,3.47
2018-08-18T01:44:45.244Z,2.90
2018-08-18T01:45:51.239Z,2.87
2018-08-18T01:46:57.243Z,3.55
2018-08-18T01:48:03.204Z,2.92
2018-08-18T01:49:08.364Z,3.03
2018-08-18T01:50:14.220Z,2.25
2018-08-18T01:51:19.556Z,3.12
2018-08-18T01:52:25.572Z,3.45
2018-08-18T01:53:31.674Z,3.20
2018-08-18T01:54:38.025Z,3.50
2018-08-18T01:55:43.934Z,2.78
2018-08-18T01:56:50.005Z,2.30
2018-08-18T01:57:56.064Z,2.87
2018-08-18T01:59:02.230Z,2.50
2018-08-18T02:00:07.299Z,3.03
2018-08-18T02:01:13.409Z,3.37
2018-08-18T02:02:19.226Z,3.05
2018-08-18T02:03:25.273Z,2.78
2018-08-18T02:04:31.625Z,2.70
2018-08-18T02:05:37.996Z,3.58
2018-08-18T02:06:44.377Z,3.80
2018-08-18T02:07:50.428Z,3.10
2018-08-18T02:08:55.868Z,3.33
2018-08-18T02:10:01.533Z,2.62
2018-08-18T02:11:07.291Z,2.72
2018-08-18T02:12:13.323Z,3.05
2018-08-18T02:13:19.194Z,2.67
2018-08-18T02:14:25.256Z,3.72
2018-08-18T02:15:30.527Z,2.65
2018-08-18T02:16:36.615Z,2.50
2018-08-18T02:17:42.482Z,5.03
2018-08-18T02:18:48.492Z,2.90
2018-08-18T02:19:54.578Z,2.60
2018-08-18T02:21:00.746Z,2.25
2018-08-18T02:22:06.052Z,4.87
2018-08-18T02:23:11.248Z,4.47
2018-08-18T02:24:17.373Z,2.55
2018-08-18T02:25:23.639Z,2.87
2018-08-18T02:26:29.885Z,4.82
2018-08-18T02:27:34.974Z,3.10
2018-08-18T02:28:41.269Z,3.78
2018-08-18T02:29:46.596Z,2.70
2018-08-18T02:30:52.564Z,4.18
2018-08-18T02:31:58.651Z,4.15
2018-08-18T02:33:04.389Z,4.65
2018-08-18T02:34:10.479Z,4.45
2018-08-18T02:35:15.767Z,2.85
2018-08-18T02:36:21.404Z,3.92
2018-08-18T02:37:27.083Z,3.50
2018-08-18T02:38:33.017Z,5.18
2018-08-18T02:39:39.123Z,3.58
2018-08-18T02:40:45.261Z,3.00
2018-08-18T02:41:50.436Z,3.70
2018-08-18T02:42:56.600Z,3.72
2018-08-18T02:44:02.561Z,3.65
2018-08-18T02:45:08.001Z,3.65
2018-08-18T02:46:13.361Z,3.03
2018-08-18T02:47:19.438Z,3.33
2018-08-18T02:48:25.460Z,3.20
2018-08-18T02:49:31.554Z,3.37
2018-08-18T02:50:37.437Z,3.15
2018-08-18T02:51:43.845Z,2.85
2018-08-18T02:52:49.831Z,3.33
2018-08-18T02:53:55.930Z,3.50
2018-08-18T02:55:01.539Z,3.42
2018-08-18T02:56:07.444Z,3.25
2018-08-18T02:57:13.144Z,3.28
2018-08-18T02:58:19.183Z,3.00
2018-08-18T02:59:25.284Z,2.40
2018-08-18T03:00:31.420Z,2.97
2018-08-18T03:01:37.376Z,5.28
2018-08-18T03:02:43.442Z,3.12
2018-08-18T03:03:49.428Z,3.10
2018-08-18T03:04:55.778Z,4.25
2018-08-18T03:06:01.606Z,6.07
2018-08-18T03:07:07.388Z,4.15
2018-08-18T03:08:13.004Z,4.72
2018-08-18T03:09:19.781Z,3.58
2018-08-18T03:10:26.098Z,3.55
2018-08-18T03:11:32.172Z,2.75
2018-08-18T03:12:38.277Z,3.08
2018-08-18T03:13:44.708Z,2.92
2018-08-18T03:14:50.933Z,4.47
2018-08-18T03:15:57.014Z,4.32
2018-08-18T03:17:02.998Z,3.00
2018-08-18T03:18:08.320Z,3.85
2018-08-18T03:19:14.416Z,4.25
2018-08-18T03:20:20.559Z,3.20
2018-08-18T03:21:26.059Z,4.28
2018-08-18T03:22:31.789Z,3.60
2018-08-18T03:23:37.639Z,3.65
2018-08-18T03:24:43.649Z,3.45
2018-08-18T03:25:49.279Z,3.97
2018-08-18T03:26:55.331Z,4.07
2018-08-18T03:28:01.360Z,5.35
2018-08-18T03:29:07.841Z,2.60
2018-08-18T03:30:14.188Z,3.42
2018-08-18T03:31:20.242Z,6.07
2018-08-18T03:32:26.264Z,3.28
2018-08-18T03:33:32.014Z,3.28
2018-08-18T03:34:38.373Z,4.12
2018-08-18T03:35:44.813Z,4.57
2018-08-18T03:36:50.422Z,4.68
2018-08-18T03:37:56.161Z,3.30
2018-08-18T03:39:01.749Z,4.18
2018-08-18T03:40:07.228Z,3.15
2018-08-18T03:41:13.287Z,3.25
2018-08-18T03:42:19.397Z,3.00
2018-08-18T03:43:25.499Z,3.53
2018-08-18T03:44:31.021Z,3.83
2018-08-18T03:45:37.016Z,3.87
2018-08-18T03:46:42.730Z,3.80
2018-08-18T03:47:48.807Z,3.22
2018-08-18T03:48:54.219Z,3.78
2018-08-18T03:50:00.256Z,2.85
2018-08-18T03:51:06.240Z,3.33
2018-08-18T03:52:12.331Z,5.15
2018-08-18T03:53:18.453Z,3.28
2018-08-18T03:54:25.220Z,3.40
2018-08-18T03:55:30.652Z,3.70
2018-08-18T03:56:36.639Z,4.45
2018-08-18T03:57:42.326Z,3.65
2018-08-18T03:58:47.779Z,3.25
2018-08-18T03:59:53.829Z,3.50
2018-08-18T04:01:00.155Z,3.95
2018-08-18T04:02:06.364Z,3.35
2018-08-18T04:03:12.573Z,8.93
2018-08-18T04:04:18.884Z,3.53
2018-08-18T04:05:25.012Z,5.57
2018-08-18T04:06:30.987Z,8.27
2018-08-18T04:07:36.744Z,4.90
2018-08-18T04:08:42.447Z,3.65
2018-08-18T04:09:48.267Z,3.35
2018-08-18T04:10:54.567Z,3.90
2018-08-18T04:12:00.328Z,4.45
2018-08-18T04:13:06.336Z,3.85
2018-08-18T04:14:12.410Z,4.30
2018-08-18T04:15:18.080Z,5.43
2018-08-18T04:16:24.765Z,4.10
2018-08-18T04:17:30.507Z,4.60
2018-08-18T04:18:36.539Z,5.40
2018-08-18T04:19:42.656Z,6.15
2018-08-18T04:20:48.676Z,4.30
2018-08-18T04:21:54.759Z,3.87
2018-08-18T04:23:01.122Z,5.32
2018-08-18T04:24:06.908Z,4.68
2018-08-18T04:25:13.271Z,5.57
2018-08-18T04:26:19.523Z,4.90
2018-08-18T04:27:25.312Z,4.35
2018-08-18T04:28:31.340Z,4.62
2018-08-18T04:29:37.456Z,4.75
2018-08-18T04:30:43.779Z,4.62
2018-08-18T04:31:50.830Z,5.68
2018-08-18T04:32:58.074Z,4.95
2018-08-18T04:34:04.100Z,4.60
2018-08-18T04:35:09.454Z,5.62
2018-08-18T04:36:15.791Z,5.35
2018-08-18T04:37:21.789Z,6.20
2018-08-18T04:38:27.905Z,6.10
2018-08-18T04:39:33.311Z,5.90
2018-08-18T04:40:39.597Z,5.85
2018-08-18T04:41:45.744Z,6.05
2018-08-18T04:42:51.988Z,5.35
2018-08-18T04:43:58.169Z,5.50
2018-08-18T04:45:03.743Z,5.55
2018-08-18T04:46:09.768Z,6.18
2018-08-18T04:47:15.733Z,5.65
2018-08-18T04:48:21.153Z,5.25
2018-08-18T04:49:27.243Z,6.55
2018-08-18T04:50:33.565Z,5.07
2018-08-18T04:51:39.789Z,4.93
2018-08-18T04:52:45.515Z,8.60
2018-08-18T04:53:51.593Z,6.97
2018-08-18T04:54:57.880Z,6.57
2018-08-18T04:56:03.901Z,6.82
2018-08-18T04:57:10.143Z,7.15
2018-08-18T04:58:16.125Z,8.38
2018-08-18T04:59:21.615Z,5.68
2018-08-18T05:00:27.973Z,6.90
2018-08-18T05:01:34.048Z,6.90
2018-08-18T05:02:39.656Z,8.25
2018-08-18T05:03:44.678Z,6.25
2018-08-18T05:04:50.784Z,7.50
2018-08-18T05:05:56.827Z,6.47
2018-08-18T05:07:03.029Z,7.07
2018-08-18T05:08:09.118Z,7.10
2018-08-18T05:09:15.358Z,6.95
2018-08-18T05:10:22.047Z,6.20
2018-08-18T05:11:28.246Z,7.15
2018-08-18T05:12:34.579Z,6.65
2018-08-18T05:13:40.689Z,8.57
2018-08-18T05:14:46.777Z,7.07
2018-08-18T05:15:53.088Z,6.05
2018-08-18T05:16:59.160Z,6.03
2018-08-18T05:18:05.338Z,6.40
2018-08-18T05:19:11.427Z,7.10
2018-08-18T05:20:17.687Z,6.97
2018-08-18T05:21:23.776Z,7.45
2018-08-18T05:22:29.740Z,5.72
2018-08-18T05:23:46.310Z,6.15
2018-08-18T05:25:03.300Z,5.40
2018-08-18T05:26:23.145Z,7.12
2018-08-18T05:27:41.386Z,8.68
2018-08-18T05:29:03.228Z,8.65
2018-08-18T05:31:52.646Z,7.12
2018-08-18T05:33:11.521Z,6.93
2018-08-18T05:34:30.425Z,6.15
2018-08-18T05:35:40.256Z,6.10
2018-08-18T05:36:45.996Z,7.22
2018-08-18T05:37:52.099Z,7.07
2018-08-18T05:38:58.305Z,7.65
2018-08-18T05:40:06.857Z,6.20
2018-08-18T05:41:14.380Z,7.43
2018-08-18T05:42:20.311Z,7.03
2018-08-18T05:43:26.756Z,6.00
2018-08-18T05:44:35.711Z,7.93
2018-08-18T05:45:42.148Z,7.65
2018-08-18T05:46:48.236Z,8.50
2018-08-18T05:47:53.608Z,8.50
2018-08-18T05:48:59.526Z,6.45
2018-08-18T05:50:04.785Z,7.35
2018-08-18T05:51:10.780Z,9.75
2018-08-18T05:52:16.920Z,7.97
2018-08-18T05:53:22.923Z,9.35
2018-08-18T05:54:29.644Z,8.90
2018-08-18T05:55:35.654Z,5.82
2018-08-18T05:56:41.433Z,8.43
2018-08-18T05:57:47.405Z,7.35
2018-08-18T05:58:54.696Z,8.35
2018-08-18T06:00:00.662Z,6.78
2018-08-18T06:01:05.850Z,9.95
2018-08-18T06:02:11.184Z,7.62
2018-08-18T06:03:16.794Z,7.47
2018-08-18T06:04:24.464Z,7.55
2018-08-18T06:05:32.549Z,8.80
2018-08-18T06:06:41.014Z,7.60
2018-08-18T06:07:48.850Z,6.68
2018-08-18T06:08:56.140Z,6.93
2018-08-18T06:10:03.388Z,8.30
2018-08-18T06:11:10.938Z,8.85
2018-08-18T06:12:18.349Z,6.82
2018-08-18T06:13:25.506Z,7.43
2018-08-18T06:14:33.093Z,6.75
2018-08-18T06:15:40.556Z,6.80
2018-08-18T06:16:46.588Z,7.57
2018-08-18T06:17:53.955Z,7.18
2018-08-18T06:19:00.976Z,7.75
2018-08-18T06:20:08.950Z,7.68
2018-08-18T06:21:15.803Z,6.87
2018-08-18T06:22:24.657Z,6.45
2018-08-18T06:23:31.847Z,6.70
2018-08-18T06:24:38.399Z,9.82
2018-08-18T06:25:46.369Z,7.45
2018-08-18T06:26:54.294Z,8.35
2018-08-18T06:28:04.355Z,6.97
2018-08-18T06:29:11.646Z,7.78
2018-08-18T06:30:18.690Z,8.15
2018-08-18T06:31:24.826Z,8.75
2018-08-18T06:32:33.167Z,8.20
2018-08-18T06:33:40.165Z,7.32
2018-08-18T06:34:47.209Z,9.25
2018-08-18T06:35:54.368Z,6.80
2018-08-18T06:37:00.983Z,6.20
2018-08-18T06:38:08.089Z,7.80
2018-08-18T06:39:15.420Z,7.72
2018-08-18T06:40:22.620Z,7.55
2018-08-18T06:41:29.997Z,5.80
2018-08-18T06:42:35.933Z,6.32
2018-08-18T06:43:43.119Z,7.40
2018-08-18T06:44:50.214Z,6.65
2018-08-18T06:45:56.209Z,7.12
2018-08-18T06:47:03.358Z,7.03
2018-08-18T06:48:10.342Z,5.68
2018-08-18T06:49:18.274Z,7.53
2018-08-18T06:50:25.867Z,6.18
2018-08-18T06:51:32.925Z,6.80
2018-08-18T06:52:40.358Z,7.22
2018-08-18T06:53:49.908Z,7.70
2018-08-18T06:54:58.142Z,6.18
2018-08-18T06:56:05.629Z,6.45
2018-08-18T06:57:12.703Z,8.07
2018-08-18T06:58:20.252Z,6.40
2018-08-18T06:59:27.854Z,7.35
2018-08-18T07:00:34.992Z,8.68
2018-08-18T07:01:42.397Z,12.57
2018-08-18T07:02:50.050Z,7.32
2018-08-18T07:03:58.623Z,5.97
2018-08-18T07:05:06.276Z,9.60
2018-08-18T07:06:13.523Z,6.25
2018-08-18T07:07:21.794Z,7.03
2018-08-18T07:08:28.513Z,6.78
2018-08-18T07:09:35.980Z,8.73
2018-08-18T07:10:42.714Z,7.12
2018-08-18T07:11:49.513Z,6.32
2018-08-18T07:13:00.050Z,6.10
2018-08-18T07:14:07.442Z,8.43
2018-08-18T07:15:14.038Z,7.12
2018-08-18T07:16:21.561Z,8.32
2018-08-18T07:17:29.506Z,7.35
2018-08-18T07:18:37.136Z,6.95
2018-08-18T07:19:44.920Z,7.53
2018-08-18T07:20:51.731Z,7.95
2018-08-18T07:21:58.625Z,7.80
2018-08-18T07:23:04.472Z,7.03
2018-08-18T07:24:12.555Z,5.82
2018-08-18T07:25:20.265Z,6.95
2018-08-18T07:26:26.466Z,7.18
2018-08-18T07:27:34.722Z,7.03
2018-08-18T07:28:41.982Z,7.95
2018-08-18T07:29:47.411Z,8.18
2018-08-18T07:30:53.152Z,6.07
2018-08-18T07:31:59.343Z,7.85
2018-08-18T07:33:06.073Z,8.27
2018-08-18T07:34:12.145Z,7.15
2018-08-18T07:35:18.449Z,9.25
2018-08-18T07:36:24.552Z,7.30
2018-08-18T07:37:30.774Z,7.55
2018-08-18T07:38:36.952Z,6.50
2018-08-18T07:39:42.970Z,5.90
2018-08-18T07:40:48.628Z,6.35
2018-08-18T07:41:54.630Z,7.90
2018-08-18T07:43:00.006Z,6.68
2018-08-18T07:44:05.743Z,9.18
2018-08-18T07:45:11.498Z,6.80
2018-08-18T07:46:18.567Z,7.97
2018-08-18T07:47:24.622Z,8.05
2018-08-18T07:48:30.651Z,7.53
2018-08-18T07:49:37.136Z,8.23
2018-08-18T07:50:43.029Z,7.22
2018-08-18T07:51:49.994Z,8.98
2018-08-18T07:52:55.811Z,6.68
2018-08-18T07:54:02.327Z,6.00
2018-08-18T07:55:09.059Z,7.40
2018-08-18T07:56:15.779Z,7.78
2018-08-18T07:57:22.054Z,6.85
2018-08-18T07:58:28.315Z,6.37
2018-08-18T07:59:34.128Z,6.25
2018-08-18T08:00:41.063Z,7.65
2018-08-18T08:01:47.741Z,6.95
2018-08-18T08:02:55.292Z,6.70
2018-08-18T08:04:01.840Z,5.28
2018-08-18T08:05:07.234Z,6.90
2018-08-18T08:06:13.750Z,7.40
2018-08-18T08:07:20.742Z,6.72
2018-08-18T08:08:25.872Z,7.68
2018-08-18T08:09:32.292Z,7.57
2018-08-18T08:10:39.870Z,7.45
2018-08-18T08:11:47.251Z,7.10
2018-08-18T08:12:55.411Z,6.60
2018-08-18T08:14:02.768Z,6.80
2018-08-18T08:15:11.119Z,7.37
2018-08-18T08:16:20.759Z,6.05
2018-08-18T08:17:28.889Z,7.32
2018-08-18T08:18:36.429Z,7.28
2018-08-18T08:19:42.905Z,8.70
2018-08-18T08:20:49.523Z,8.60
2018-08-18T08:21:55.630Z,9.00
2018-08-18T08:23:01.248Z,7.95
2018-08-18T08:24:07.246Z,9.32
2018-08-18T08:25:12.930Z,8.52
2018-08-18T08:26:18.664Z,7.18
2018-08-18T08:27:25.998Z,7.60
2018-08-18T08:28:32.521Z,8.20
2018-08-18T08:29:39.585Z,10.00
2018-08-18T08:30:47.177Z,6.53
2018-08-18T08:31:53.043Z,6.30
2018-08-18T08:33:01.833Z,6.15
2018-08-18T08:34:09.442Z,7.65
2018-08-18T08:35:16.745Z,8.60
2018-08-18T08:36:23.776Z,5.68
2018-08-18T08:37:30.396Z,7.20
2018-08-18T08:38:35.887Z,7.90
2018-08-18T08:39:41.998Z,8.30
2018-08-18T08:40:48.087Z,8.07
2018-08-18T08:41:54.188Z,10.60
2018-08-18T08:43:00.277Z,6.90
2018-08-18T08:44:06.059Z,8.55
2018-08-18T08:45:13.698Z,8.57
2018-08-18T08:46:20.405Z,7.20
2018-08-18T08:47:27.758Z,8.65
2018-08-18T08:48:35.258Z,6.95
2018-08-18T08:49:44.148Z,10.25
2018-08-18T08:50:52.648Z,8.80
2018-08-18T08:51:59.686Z,11.32
2018-08-18T08:53:08.415Z,9.77
2018-08-18T08:54:16.282Z,7.78
2018-08-18T08:55:24.042Z,9.23
2018-08-18T08:56:31.666Z,8.80
2018-08-18T08:57:40.188Z,7.80
2018-08-18T08:58:47.538Z,7.90
2018-08-18T08:59:55.932Z,7.50
2018-08-18T09:01:02.159Z,7.45
2018-08-18T09:02:15.221Z,6.25
2018-08-18T09:03:22.939Z,6.57
2018-08-18T09:04:30.651Z,9.35
2018-08-18T09:05:38.555Z,8.90
2018-08-18T09:06:46.496Z,8.00
2018-08-18T09:07:54.798Z,7.10
2018-08-18T09:09:02.546Z,8.20
2018-08-18T09:10:10.210Z,9.75
2018-08-18T09:11:17.929Z,8.70
2018-08-18T09:12:25.373Z,8.25
2018-08-18T09:13:33.201Z,7.00
2018-08-18T09:14:40.512Z,8.68
2018-08-18T09:15:52.764Z,8.15
2018-08-18T09:16:59.972Z,6.47
2018-08-18T09:18:07.242Z,6.93
2018-08-18T09:19:16.259Z,9.50
2018-08-18T09:20:23.650Z,7.12
2018-08-18T09:21:30.430Z,7.80
2018-08-18T09:22:37.932Z,9.00
2018-08-18T09:23:46.042Z,7.97
2018-08-18T09:24:53.682Z,8.73
2018-08-18T09:26:01.650Z,6.93
2018-08-18T09:27:09.603Z,8.48
2018-08-18T09:28:18.173Z,7.45
2018-08-18T09:29:25.313Z,5.72
2018-08-18T09:30:33.125Z,7.25
2018-08-18T09:31:42.025Z,7.97
2018-08-18T09:32:50.273Z,9.45
2018-08-18T09:33:57.430Z,8.45
2018-08-18T09:35:05.208Z,7.78
2018-08-18T09:36:11.407Z,7.40
2018-08-18T09:37:17.733Z,7.53
2018-08-18T09:38:23.412Z,7.07
2018-08-18T09:39:29.244Z,7.93
2018-08-18T09:40:35.389Z,7.22
2018-08-18T09:41:41.466Z,7.75
2018-08-18T09:42:48.235Z,6.82
2018-08-18T09:43:53.953Z,6.18
2018-08-18T09:44:59.661Z,6.87
2018-08-18T09:46:05.325Z,5.35
2018-08-18T09:47:11.277Z,6.47
2018-08-18T09:48:17.036Z,5.62
2018-08-18T09:49:23.080Z,6.40
2018-08-18T09:50:29.155Z,7.18
2018-08-18T09:51:35.090Z,7.28
2018-08-18T09:52:41.206Z,8.60
2018-08-18T09:53:47.331Z,7.03
2018-08-18T09:54:53.646Z,7.30
2018-08-18T09:55:58.691Z,6.15
2018-08-18T09:57:03.609Z,6.10
2018-08-18T09:58:09.698Z,6.95
2018-08-18T09:59:15.850Z,6.90
2018-08-18T10:00:21.581Z,7.72
2018-08-18T10:01:27.267Z,6.03
2018-08-18T10:02:33.616Z,6.35
2018-08-18T10:03:39.754Z,7.07
2018-08-18T10:04:45.860Z,7.18
2018-08-18T10:05:51.940Z,7.07
2018-08-18T10:06:57.381Z,7.50
2018-08-18T10:08:02.644Z,5.50
2018-08-18T10:09:08.277Z,8.00
2018-08-18T10:10:13.965Z,5.10
2018-08-18T10:11:21.577Z,5.20
2018-08-18T10:12:27.573Z,5.37
2018-08-18T10:13:33.558Z,6.35
2018-08-18T10:14:43.587Z,7.72
2018-08-18T10:15:50.000Z,7.97
2018-08-18T10:16:56.287Z,6.10
2018-08-18T10:18:01.958Z,5.65
2018-08-18T10:19:07.189Z,6.10
2018-08-18T10:20:18.248Z,4.93
2018-08-18T10:21:28.191Z,5.50
2018-08-18T10:22:34.220Z,5.60
2018-08-18T10:23:40.931Z,5.10
2018-08-18T10:24:48.852Z,7.03
2018-08-18T10:25:57.070Z,5.32
2018-08-18T10:27:04.524Z,6.25
2018-08-18T10:28:12.354Z,5.07
2018-08-18T10:29:20.816Z,5.37
2018-08-18T10:30:29.417Z,6.43
2018-08-18T10:31:37.218Z,7.03
2018-08-18T10:32:45.234Z,8.63
2018-08-18T10:33:54.597Z,6.22
2018-08-18T10:35:02.500Z,5.85
2018-08-18T10:36:11.293Z,6.28
2018-08-18T10:37:20.060Z,6.03
2018-08-18T10:38:27.567Z,6.15
2018-08-18T10:39:34.825Z,6.60
2018-08-18T10:40:42.849Z,6.53
2018-08-18T10:41:50.619Z,5.00
2018-08-18T10:42:58.164Z,5.93
2018-08-18T10:44:07.019Z,6.30
2018-08-18T10:45:18.988Z,8.80
2018-08-18T10:46:27.219Z,6.82
2018-08-18T10:47:34.528Z,5.95
2018-08-18T10:48:40.644Z,5.32
2018-08-18T10:51:37.444Z,6.80
2018-08-18T10:52:54.750Z,7.72
2018-08-18T10:54:00.512Z,7.53
2018-08-18T10:55:19.000Z,5.87
2018-08-18T10:56:25.025Z,8.82
2018-08-18T10:59:13.923Z,5.72
2018-08-18T11:00:20.556Z,5.57
2018-08-18T11:01:32.751Z,6.28
2018-08-18T11:02:39.876Z,4.82
2018-08-18T11:03:47.524Z,6.12
2018-08-18T11:04:56.033Z,6.80
2018-08-18T11:06:03.570Z,6.35
2018-08-18T11:07:11.135Z,5.07
2018-08-18T11:08:18.828Z,4.97
2018-08-18T11:09:28.642Z,4.35
2018-08-18T11:10:36.156Z,5.30
2018-08-18T11:11:47.111Z,5.22
2018-08-18T11:12:53.721Z,4.70
2018-08-18T11:14:01.054Z,5.07
2018-08-18T11:15:07.617Z,5.20
2018-08-18T11:16:15.254Z,4.32
2018-08-18T11:17:23.386Z,5.22
2018-08-18T11:18:33.048Z,5.07
2018-08-18T11:19:40.457Z,8.00
2018-08-18T11:20:47.724Z,5.82
2018-08-18T11:21:54.976Z,5.25
2018-08-18T11:23:02.829Z,5.30
2018-08-18T11:24:09.276Z,5.12
2018-08-18T11:25:17.533Z,4.90
2018-08-18T11:26:25.792Z,5.30
2018-08-18T11:27:33.915Z,5.30
2018-08-18T11:28:42.394Z,6.22
2018-08-18T11:29:49.357Z,6.05
2018-08-18T11:30:58.123Z,5.43
2018-08-18T11:32:05.049Z,5.20
2018-08-18T11:33:11.413Z,4.60
2018-08-18T11:34:19.249Z,4.85
2018-08-18T11:35:26.975Z,5.75
2018-08-18T11:36:34.054Z,5.45
2018-08-18T11:37:40.496Z,6.80
2018-08-18T11:38:47.317Z,5.00
2018-08-18T11:39:54.656Z,6.05
2018-08-18T11:41:02.590Z,5.90
2018-08-18T11:42:21.594Z,5.57
2018-08-18T11:43:27.257Z,4.90
2018-08-18T11:44:33.517Z,5.12
2018-08-18T11:45:42.588Z,4.85
2018-08-18T11:46:50.414Z,4.78
2018-08-18T11:47:56.074Z,5.05
2018-08-18T11:49:01.932Z,5.33
2018-08-18T11:50:07.984Z,6.60
2018-08-18T11:51:14.486Z,6.40
2018-08-18T11:52:20.620Z,5.82
2018-08-18T11:53:26.753Z,4.72
2018-08-18T11:54:32.721Z,6.65
2018-08-18T11:55:38.729Z,6.43
2018-08-18T11:56:44.639Z,5.47
2018-08-18T11:57:50.693Z,6.40
2018-08-18T11:58:55.860Z,4.00
2018-08-18T12:00:02.669Z,5.53
2018-08-18T12:01:11.681Z,4.40
2018-08-18T12:02:17.608Z,6.00
2018-08-18T12:03:23.344Z,5.22
2018-08-18T12:04:29.333Z,5.40
2018-08-18T12:05:35.365Z,6.15
2018-08-18T12:06:41.107Z,6.37
2018-08-18T12:07:46.556Z,5.82
2018-08-18T12:08:57.601Z,5.45
2018-08-18T12:10:03.614Z,5.30
2018-08-18T12:11:09.023Z,6.43
2018-08-18T12:12:14.438Z,7.00
2018-08-18T12:13:19.530Z,5.60
2018-08-18T12:14:25.734Z,5.12
2018-08-18T12:15:31.391Z,6.68
2018-08-18T12:16:37.289Z,6.30
2018-08-18T12:17:42.404Z,5.20
2018-08-18T12:18:48.113Z,5.22
2018-08-18T12:19:54.248Z,5.60
2018-08-18T12:21:00.040Z,5.53
2018-08-18T12:22:05.684Z,5.60
2018-08-18T12:23:11.431Z,5.37
2018-08-18T12:24:17.452Z,5.95
2018-08-18T12:25:23.117Z,5.30
2018-08-18T12:26:29.168Z,4.87
2018-08-18T12:27:34.769Z,5.57
2018-08-18T12:28:39.951Z,5.90
2018-08-18T12:29:46.131Z,5.68
2018-08-18T12:30:51.883Z,5.90
2018-08-18T12:31:57.590Z,4.95
2018-08-18T12:33:04.228Z,5.18
2018-08-18T12:34:10.268Z,4.90
2018-08-18T12:35:16.136Z,4.82
2018-08-18T12:36:21.661Z,5.37
2018-08-18T12:37:27.689Z,5.10
2018-08-18T12:38:32.775Z,5.03
2018-08-18T12:39:39.016Z,5.03
2018-08-18T12:40:55.052Z,5.05
2018-08-18T12:42:00.918Z,5.13
2018-08-18T12:43:06.006Z,4.53
2018-08-18T12:44:11.544Z,5.77
2018-08-18T12:45:17.040Z,5.17
2018-08-18T12:46:22.809Z,5.70
2018-08-18T12:47:33.285Z,5.68
2018-08-18T12:48:44.154Z,5.07
2018-08-18T12:49:49.991Z,4.70
2018-08-18T12:50:55.956Z,4.30
2018-08-18T12:52:01.392Z,6.05
2018-08-18T12:53:07.159Z,6.32
2018-08-18T12:54:13.188Z,5.30
2018-08-18T12:55:18.929Z,4.20
2018-08-18T12:56:24.048Z,7.50
2018-08-18T12:57:29.091Z,8.57
2018-08-18T12:58:46.836Z,5.30
2018-08-18T12:59:52.956Z,4.97
2018-08-18T13:00:58.673Z,5.33
2018-08-18T13:02:04.064Z,5.70
2018-08-18T13:03:10.057Z,4.40
2018-08-18T13:04:15.867Z,5.03
2018-08-18T13:05:21.883Z,4.80
2018-08-18T13:06:27.324Z,5.10
2018-08-18T13:07:32.892Z,4.60
2018-08-18T13:08:38.525Z,5.63
2018-08-18T13:09:43.873Z,4.47
2018-08-18T13:10:49.370Z,5.40
2018-08-18T13:11:54.546Z,5.47
2018-08-18T13:13:00.579Z,6.15
2018-08-18T13:14:06.063Z,4.90
2018-08-18T13:15:11.598Z,5.83
2018-08-18T13:16:17.148Z,5.00
2018-08-18T13:17:23.212Z,4.97
2018-08-18T13:18:29.637Z,5.20
2018-08-18T13:19:35.573Z,5.30
2018-08-18T13:20:41.331Z,5.13
2018-08-18T13:21:47.482Z,4.67
2018-08-18T13:22:53.339Z,4.53
2018-08-18T13:23:59.441Z,4.87
2018-08-18T13:25:05.217Z,4.30
2018-08-18T13:26:10.920Z,4.60
2018-08-18T13:27:16.755Z,4.83
2018-08-18T13:28:22.216Z,4.40
2018-08-18T13:29:27.954Z,4.60
2018-08-18T13:30:43.185Z,4.60
2018-08-18T13:31:48.956Z,4.93
2018-08-18T13:32:54.036Z,5.23
2018-08-18T13:33:59.738Z,4.53
2018-08-18T13:35:06.087Z,7.73
2018-08-18T13:36:11.920Z,6.17
2018-08-18T13:37:25.192Z,4.87
2018-08-18T13:38:37.288Z,4.50
2018-08-18T13:39:42.963Z,6.07
2018-08-18T13:40:48.631Z,4.87
2018-08-18T13:41:54.134Z,4.40
2018-08-18T13:42:59.452Z,5.10
2018-08-18T13:44:05.216Z,5.10
2018-08-18T13:45:10.372Z,5.50
2018-08-18T13:46:15.874Z,4.60
2018-08-18T13:47:21.650Z,6.83
2018-08-18T13:48:48.897Z,5.30
2018-08-18T13:49:54.784Z,4.87
2018-08-18T13:51:00.256Z,4.60
2018-08-18T13:52:05.342Z,4.67
2018-08-18T13:53:10.840Z,5.33
2018-08-18T13:54:16.588Z,5.13
2018-08-18T13:55:22.972Z,5.10
2018-08-18T13:56:28.692Z,4.97
2018-08-18T13:57:34.146Z,4.50
2018-08-18T13:58:39.612Z,5.17
2018-08-18T13:59:50.224Z,4.50
2018-08-18T14:00:56.458Z,5.63
2018-08-18T14:02:02.313Z,4.70
2018-08-18T14:03:07.156Z,5.77
2018-08-18T14:04:26.674Z,5.23
2018-08-18T14:05:32.602Z,5.03
2018-08-18T14:06:38.032Z,4.37
2018-08-18T14:07:43.042Z,5.70
2018-08-18T14:08:48.609Z,4.90
2018-08-18T14:09:54.444Z,6.10
2018-08-18T14:11:00.290Z,4.93
2018-08-18T14:12:05.355Z,5.90
2018-08-18T14:13:11.139Z,4.70
2018-08-18T14:14:21.139Z,4.70
2018-08-18T14:15:27.030Z,4.87
2018-08-18T14:16:32.824Z,4.37
2018-08-18T14:17:38.264Z,4.50
2018-08-18T14:18:49.125Z,5.10
2018-08-18T14:19:55.156Z,4.43
2018-08-18T14:21:00.608Z,5.80
2018-08-18T14:22:08.654Z,6.37
2018-08-18T14:23:14.385Z,5.40
2018-08-18T14:24:20.766Z,6.10
2018-08-18T14:25:26.293Z,6.17
2018-08-18T14:26:32.028Z,5.03
2018-08-18T14:27:37.472Z,5.33
2018-08-18T14:28:43.288Z,5.10
2018-08-18T14:29:48.977Z,5.33
2018-08-18T14:30:55.007Z,5.07
2018-08-18T14:32:00.360Z,5.53
2018-08-18T14:33:06.053Z,5.10
2018-08-18T14:34:12.027Z,5.60
2018-08-18T14:35:17.200Z,4.73
2018-08-18T14:36:22.332Z,5.00
2018-08-18T14:37:28.046Z,5.53
2018-08-18T14:38:33.384Z,5.20
2018-08-18T14:39:38.452Z,4.87
2018-08-18T14:40:43.796Z,7.47
2018-08-18T14:41:49.647Z,7.33
2018-08-18T14:42:55.408Z,4.73
2018-08-18T14:44:01.249Z,4.90
2018-08-18T14:45:06.001Z,5.57
2018-08-18T14:46:11.019Z,5.50
2018-08-18T14:47:17.084Z,4.90
2018-08-18T14:48:22.568Z,5.10
2018-08-18T14:49:34.304Z,5.90
2018-08-18T14:50:40.151Z,4.73
2018-08-18T14:51:46.021Z,5.47
2018-08-18T14:52:51.063Z,5.13